Terminal Aerodrome Forecast
Issued by NWS

Home | Current Version | Previous Version | Text Only | Print | Product List | Glossary On
Versions: 1 2 3 4 5 6 7 8 9 10 11 12 13 14 15 16 17 18
000
FTUS43 KOAX 251120
TAFCDR
TAF
KCDR 251120Z 2512/2612 24008KT P6SM SCT150
     FM251500 26012KT P6SM FEW250
     FM252200 28014KT P6SM SCT250
     FM260200 29009KT P6SM BKN250
     FM260500 30005KT P6SM BKN250=

USA.gov is the U.S. government's official web portal to all federal, state and local government web resources and services.